Pietersburg, South Africa
Current Conditions -  °F | °C
As of 8:00 AM on Saturday 29 Nov 2014 (Local Time) from FAPP Reporting Station
Scattered Clouds Scattered Clouds  
Wind Chill: 64°   Ceiling: Unl
Heat Index: 64°   Visibility: 6mi
Dew Point: 55°   Wind: 3mph
Humidity: 73%   Direction: 70°ENE
Pressure: 30.18"   Gusts: NA
Location:  23.89°S, 29.45°E
Report Text: FAPP 290600Z 07003KT 9999 SCT020 18/13 Q1022 NOSIG
Loading
Personal Weather Stations






























Interactive Weather Map New forecast layout! Learn more

10-Day Weather Forecast

Advertisements
Track Severe Weather on mobile